sensor_id;sensor_type;location;lat;lon;timestamp;temperature;humidity
48744;DHT22;34538;48.836;9.174;2022-10-16T00:01:35;16.10;99.90
48744;DHT22;34538;48.836;9.174;2022-10-16T00:04:01;16.10;99.90
48744;DHT22;34538;48.836;9.174;2022-10-16T00:06:29;16.00;99.90
48744;DHT22;34538;48.836;9.174;2022-10-16T00:08:56;16.00;99.90
48744;DHT22;34538;48.836;9.174;2022-10-16T00:11:25;16.00;99.90
48744;DHT22;34538;48.836;9.174;2022-10-16T00:13:56;16.00;99.90
48744;DHT22;34538;48.836;9.174;2022-10-16T00:16:22;15.90;99.90
48744;DHT22;34538;48.836;9.174;2022-10-16T00:18:48;15.90;99.90
48744;DHT22;34538;48.836;9.174;2022-10-16T00:21:19;15.80;99.90
48744;DHT22;34538;48.836;9.174;2022-10-16T00:23:45;15.80;99.90
48744;DHT22;34538;48.836;9.174;2022-10-16T00:26:14;15.80;99.90
48744;DHT22;34538;48.836;9.174;2022-10-16T00:28:41;15.70;99.90
48744;DHT22;34538;48.836;9.174;2022-10-16T00:31:09;15.70;99.90
48744;DHT22;34538;48.836;9.174;2022-10-16T00:33:37;15.70;99.90
48744;DHT22;34538;48.836;9.174;2022-10-16T00:36:04;15.60;99.90
48744;DHT22;34538;48.836;9.174;2022-10-16T00:38:30;15.60;99.90
48744;DHT22;34538;48.836;9.174;2022-10-16T00:40:56;15.60;99.90
48744;DHT22;34538;48.836;9.174;2022-10-16T00:43:42;15.50;99.90
48744;DHT22;34538;48.836;9.174;2022-10-16T00:46:16;15.50;99.90
48744;DHT22;34538;48.836;9.174;2022-10-16T00:49:00;15.40;99.90
48744;DHT22;34538;48.836;9.174;2022-10-16T00:51:53;15.40;99.90
48744;DHT22;34538;48.836;9.174;2022-10-16T00:54:29;15.30;99.90
48744;DHT22;34538;48.836;9.174;2022-10-16T00:56:59;15.20;99.90
48744;DHT22;34538;48.836;9.174;2022-10-16T00:59:45;15.20;99.90
48744;DHT22;34538;48.836;9.174;2022-10-16T01:02:14;15.20;99.90
48744;DHT22;34538;48.836;9.174;2022-10-16T01:04:44;15.20;99.90
48744;DHT22;34538;48.836;9.174;2022-10-16T01:07:14;15.20;99.90
48744;DHT22;34538;48.836;9.174;2022-10-16T01:09:51;15.20;99.90
48744;DHT22;34538;48.836;9.174;2022-10-16T01:12:34;15.20;99.90
48744;DHT22;34538;48.836;9.174;2022-10-16T01:21:08;15.20;99.90
48744;DHT22;34538;48.836;9.174;2022-10-16T01:26:42;15.30;99.90
48744;DHT22;34538;48.836;9.174;2022-10-16T01:29:20;15.30;99.90
48744;DHT22;34538;48.836;9.174;2022-10-16T01:31:53;15.30;99.90
48744;DHT22;34538;48.836;9.174;2022-10-16T01:34:21;15.30;99.90
48744;DHT22;34538;48.836;9.174;2022-10-16T01:37:02;15.30;99.90
48744;DHT22;34538;48.836;9.174;2022-10-16T01:39:32;15.30;99.90
48744;DHT22;34538;48.836;9.174;2022-10-16T01:42:04;15.30;99.90
48744;DHT22;34538;48.836;9.174;2022-10-16T01:44:32;15.30;99.90
48744;DHT22;34538;48.836;9.174;2022-10-16T01:47:00;15.30;99.90
48744;DHT22;34538;48.836;9.174;2022-10-16T01:49:32;15.30;99.90
48744;DHT22;34538;48.836;9.174;2022-10-16T01:52:00;15.30;99.90
48744;DHT22;34538;48.836;9.174;2022-10-16T01:54:28;15.30;99.90
48744;DHT22;34538;48.836;9.174;2022-10-16T01:56:57;15.30;99.90
48744;DHT22;34538;48.836;9.174;2022-10-16T01:59:25;15.30;99.90
48744;DHT22;34538;48.836;9.174;2022-10-16T02:02:00;15.30;99.90
48744;DHT22;34538;48.836;9.174;2022-10-16T02:04:32;15.30;99.90
48744;DHT22;34538;48.836;9.174;2022-10-16T02:06:58;15.30;99.90
48744;DHT22;34538;48.836;9.174;2022-10-16T02:09:25;15.30;99.90
48744;DHT22;34538;48.836;9.174;2022-10-16T02:11:53;15.30;99.90
48744;DHT22;34538;48.836;9.174;2022-10-16T02:14:21;15.30;99.90
48744;DHT22;34538;48.836;9.174;2022-10-16T02:16:50;15.30;99.90
48744;DHT22;34538;48.836;9.174;2022-10-16T02:19:17;15.30;99.90
48744;DHT22;34538;48.836;9.174;2022-10-16T02:21:56;15.30;99.90
48744;DHT22;34538;48.836;9.174;2022-10-16T02:24:42;15.30;99.90
48744;DHT22;34538;48.836;9.174;2022-10-16T02:27:23;15.30;99.90
48744;DHT22;34538;48.836;9.174;2022-10-16T02:29:55;15.30;99.90
48744;DHT22;34538;48.836;9.174;2022-10-16T02:32:28;15.30;99.90
48744;DHT22;34538;48.836;9.174;2022-10-16T02:34:56;15.30;99.90
48744;DHT22;34538;48.836;9.174;2022-10-16T02:37:24;15.40;99.90
48744;DHT22;34538;48.836;9.174;2022-10-16T02:39:50;15.30;99.90
48744;DHT22;34538;48.836;9.174;2022-10-16T02:42:18;15.30;99.90
48744;DHT22;34538;48.836;9.174;2022-10-16T02:44:44;15.30;99.90
48744;DHT22;34538;48.836;9.174;2022-10-16T02:47:09;15.30;99.90
48744;DHT22;34538;48.836;9.174;2022-10-16T02:49:35;15.30;99.90
48744;DHT22;34538;48.836;9.174;2022-10-16T02:52:01;15.30;99.90
48744;DHT22;34538;48.836;9.174;2022-10-16T02:54:26;15.30;99.90
48744;DHT22;34538;48.836;9.174;2022-10-16T02:56:58;15.30;99.90
48744;DHT22;34538;48.836;9.174;2022-10-16T02:59:45;15.30;99.90
48744;DHT22;34538;48.836;9.174;2022-10-16T03:02:13;15.30;99.90
48744;DHT22;34538;48.836;9.174;2022-10-16T03:04:39;15.30;99.90
48744;DHT22;34538;48.836;9.174;2022-10-16T03:07:04;15.30;99.90
48744;DHT22;34538;48.836;9.174;2022-10-16T03:09:30;15.30;99.90
48744;DHT22;34538;48.836;9.174;2022-10-16T03:11:59;15.20;99.90
48744;DHT22;34538;48.836;9.174;2022-10-16T03:14:25;15.20;99.90
48744;DHT22;34538;48.836;9.174;2022-10-16T03:16:50;15.20;99.90
48744;DHT22;34538;48.836;9.174;2022-10-16T03:19:17;15.20;99.90
48744;DHT22;34538;48.836;9.174;2022-10-16T03:21:43;15.20;99.90
48744;DHT22;34538;48.836;9.174;2022-10-16T03:24:09;15.20;99.90
48744;DHT22;34538;48.836;9.174;2022-10-16T03:26:35;15.10;99.90
48744;DHT22;34538;48.836;9.174;2022-10-16T03:29:00;15.10;99.90
48744;DHT22;34538;48.836;9.174;2022-10-16T03:31:28;15.10;99.90
48744;DHT22;34538;48.836;9.174;2022-10-16T03:33:53;15.00;99.90
48744;DHT22;34538;48.836;9.174;2022-10-16T03:36:19;15.00;99.90
48744;DHT22;34538;48.836;9.174;2022-10-16T03:38:44;15.00;99.90
48744;DHT22;34538;48.836;9.174;2022-10-16T03:41:10;15.00;99.90
48744;DHT22;34538;48.836;9.174;2022-10-16T03:43:36;15.00;99.90
48744;DHT22;34538;48.836;9.174;2022-10-16T03:46:01;14.90;99.90
48744;DHT22;34538;48.836;9.174;2022-10-16T03:48:27;14.90;99.90
48744;DHT22;34538;48.836;9.174;2022-10-16T03:50:53;14.90;99.90
48744;DHT22;34538;48.836;9.174;2022-10-16T03:53:18;14.90;99.90
48744;DHT22;34538;48.836;9.174;2022-10-16T03:55:44;15.00;99.90
48744;DHT22;34538;48.836;9.174;2022-10-16T03:58:11;15.00;99.90
48744;DHT22;34538;48.836;9.174;2022-10-16T04:00:43;14.90;99.90
48744;DHT22;34538;48.836;9.174;2022-10-16T04:03:10;14.90;99.90
48744;DHT22;34538;48.836;9.174;2022-10-16T04:05:36;14.90;99.90
48744;DHT22;34538;48.836;9.174;2022-10-16T04:08:02;14.90;99.90
48744;DHT22;34538;48.836;9.174;2022-10-16T04:10:28;14.90;99.90
48744;DHT22;34538;48.836;9.174;2022-10-16T04:12:53;15.00;99.90
48744;DHT22;34538;48.836;9.174;2022-10-16T04:15:24;14.90;99.90
48744;DHT22;34538;48.836;9.174;2022-10-16T04:17:50;14.90;99.90
48744;DHT22;34538;48.836;9.174;2022-10-16T04:20:17;14.90;99.90
48744;DHT22;34538;48.836;9.174;2022-10-16T04:22:43;14.90;99.90
48744;DHT22;34538;48.836;9.174;2022-10-16T04:25:09;14.90;99.90
48744;DHT22;34538;48.836;9.174;2022-10-16T04:27:35;14.90;99.90
48744;DHT22;34538;48.836;9.174;2022-10-16T04:30:00;14.90;99.90
48744;DHT22;34538;48.836;9.174;2022-10-16T04:32:26;14.80;99.90
48744;DHT22;34538;48.836;9.174;2022-10-16T04:34:52;14.80;99.90
48744;DHT22;34538;48.836;9.174;2022-10-16T04:37:18;14.80;99.90
48744;DHT22;34538;48.836;9.174;2022-10-16T04:39:44;14.80;99.90
48744;DHT22;34538;48.836;9.174;2022-10-16T04:42:10;14.80;99.90
48744;DHT22;34538;48.836;9.174;2022-10-16T04:44:36;14.80;99.90
48744;DHT22;34538;48.836;9.174;2022-10-16T04:50:05;14.90;99.90
48744;DHT22;34538;48.836;9.174;2022-10-16T04:52:31;14.90;99.90
48744;DHT22;34538;48.836;9.174;2022-10-16T04:54:58;14.90;99.90
48744;DHT22;34538;48.836;9.174;2022-10-16T04:57:51;14.90;99.90
48744;DHT22;34538;48.836;9.174;2022-10-16T05:00:17;14.90;99.90
48744;DHT22;34538;48.836;9.174;2022-10-16T05:02:43;14.90;99.90
48744;DHT22;34538;48.836;9.174;2022-10-16T05:05:08;14.90;99.90
48744;DHT22;34538;48.836;9.174;2022-10-16T05:07:34;14.90;99.90
48744;DHT22;34538;48.836;9.174;2022-10-16T05:10:00;14.90;99.90
48744;DHT22;34538;48.836;9.174;2022-10-16T05:12:25;14.90;99.90
48744;DHT22;34538;48.836;9.174;2022-10-16T05:14:51;14.90;99.90
48744;DHT22;34538;48.836;9.174;2022-10-16T05:17:17;14.90;99.90
48744;DHT22;34538;48.836;9.174;2022-10-16T05:19:42;14.90;99.90
48744;DHT22;34538;48.836;9.174;2022-10-16T05:22:08;14.80;99.90
48744;DHT22;34538;48.836;9.174;2022-10-16T05:24:34;14.80;99.90
48744;DHT22;34538;48.836;9.174;2022-10-16T05:27:00;14.80;99.90
48744;DHT22;34538;48.836;9.174;2022-10-16T05:29:26;14.80;99.90
48744;DHT22;34538;48.836;9.174;2022-10-16T05:31:52;14.80;99.90
48744;DHT22;34538;48.836;9.174;2022-10-16T05:34:18;14.80;99.90
48744;DHT22;34538;48.836;9.174;2022-10-16T05:36:44;14.80;99.90
48744;DHT22;34538;48.836;9.174;2022-10-16T05:39:11;14.80;99.90
48744;DHT22;34538;48.836;9.174;2022-10-16T05:41:36;14.70;99.90
48744;DHT22;34538;48.836;9.174;2022-10-16T05:44:05;14.70;99.90
48744;DHT22;34538;48.836;9.174;2022-10-16T05:46:31;14.70;99.90
48744;DHT22;34538;48.836;9.174;2022-10-16T05:48:57;14.70;99.90
48744;DHT22;34538;48.836;9.174;2022-10-16T05:51:23;14.70;99.90
48744;DHT22;34538;48.836;9.174;2022-10-16T05:53:49;14.70;99.90
48744;DHT22;34538;48.836;9.174;2022-10-16T05:56:15;14.70;99.90
48744;DHT22;34538;48.836;9.174;2022-10-16T05:58:41;14.70;99.90
48744;DHT22;34538;48.836;9.174;2022-10-16T06:01:10;14.70;99.90
48744;DHT22;34538;48.836;9.174;2022-10-16T06:03:36;14.70;99.90
48744;DHT22;34538;48.836;9.174;2022-10-16T06:06:13;14.80;99.90
48744;DHT22;34538;48.836;9.174;2022-10-16T06:08:40;14.80;99.90
48744;DHT22;34538;48.836;9.174;2022-10-16T06:11:08;14.80;99.90
48744;DHT22;34538;48.836;9.174;2022-10-16T06:13:35;14.80;99.90
48744;DHT22;34538;48.836;9.174;2022-10-16T06:16:01;14.90;99.90
48744;DHT22;34538;48.836;9.174;2022-10-16T06:18:28;14.90;99.90
48744;DHT22;34538;48.836;9.174;2022-10-16T06:20:54;14.90;99.90
48744;DHT22;34538;48.836;9.174;2022-10-16T06:23:20;14.90;99.90
48744;DHT22;34538;48.836;9.174;2022-10-16T06:25:46;14.90;99.90
48744;DHT22;34538;48.836;9.174;2022-10-16T06:28:13;14.90;99.90
48744;DHT22;34538;48.836;9.174;2022-10-16T06:30:39;14.90;99.90
48744;DHT22;34538;48.836;9.174;2022-10-16T06:33:04;14.90;99.90
48744;DHT22;34538;48.836;9.174;2022-10-16T06:35:30;14.90;99.90
48744;DHT22;34538;48.836;9.174;2022-10-16T06:37:57;14.90;99.90
48744;DHT22;34538;48.836;9.174;2022-10-16T06:40:23;15.00;99.90
48744;DHT22;34538;48.836;9.174;2022-10-16T06:42:49;15.00;99.90
48744;DHT22;34538;48.836;9.174;2022-10-16T06:45:17;15.10;99.90
48744;DHT22;34538;48.836;9.174;2022-10-16T06:47:42;15.10;99.90
48744;DHT22;34538;48.836;9.174;2022-10-16T06:50:08;15.10;99.90
48744;DHT22;34538;48.836;9.174;2022-10-16T06:52:34;15.20;99.90
48744;DHT22;34538;48.836;9.174;2022-10-16T06:55:00;15.30;99.90
48744;DHT22;34538;48.836;9.174;2022-10-16T06:57:26;15.30;99.90
48744;DHT22;34538;48.836;9.174;2022-10-16T06:59:51;15.30;99.90
48744;DHT22;34538;48.836;9.174;2022-10-16T07:02:17;15.40;99.90
48744;DHT22;34538;48.836;9.174;2022-10-16T07:04:42;15.40;99.90
48744;DHT22;34538;48.836;9.174;2022-10-16T07:07:08;15.50;99.90
48744;DHT22;34538;48.836;9.174;2022-10-16T07:09:34;15.50;99.90
48744;DHT22;34538;48.836;9.174;2022-10-16T07:11:59;15.60;99.90
48744;DHT22;34538;48.836;9.174;2022-10-16T07:14:25;15.70;99.90
48744;DHT22;34538;48.836;9.174;2022-10-16T07:16:51;15.80;99.90
48744;DHT22;34538;48.836;9.174;2022-10-16T07:19:16;15.80;99.90
48744;DHT22;34538;48.836;9.174;2022-10-16T07:21:43;15.90;99.90
48744;DHT22;34538;48.836;9.174;2022-10-16T07:24:16;15.90;99.90
48744;DHT22;34538;48.836;9.174;2022-10-16T07:29:21;16.00;99.90
48744;DHT22;34538;48.836;9.174;2022-10-16T07:31:48;16.00;99.90
48744;DHT22;34538;48.836;9.174;2022-10-16T07:34:16;16.00;99.90
48744;DHT22;34538;48.836;9.174;2022-10-16T07:36:42;16.10;99.90
48744;DHT22;34538;48.836;9.174;2022-10-16T07:39:25;16.10;99.90
48744;DHT22;34538;48.836;9.174;2022-10-16T07:41:51;16.10;99.90
48744;DHT22;34538;48.836;9.174;2022-10-16T07:44:17;16.10;99.90
48744;DHT22;34538;48.836;9.174;2022-10-16T07:46:42;16.10;99.90
48744;DHT22;34538;48.836;9.174;2022-10-16T07:49:14;16.10;99.90
48744;DHT22;34538;48.836;9.174;2022-10-16T07:51:54;16.20;99.90
48744;DHT22;34538;48.836;9.174;2022-10-16T07:54:20;16.20;99.90
48744;DHT22;34538;48.836;9.174;2022-10-16T07:56:45;16.20;99.90
48744;DHT22;34538;48.836;9.174;2022-10-16T07:59:11;16.30;99.90
48744;DHT22;34538;48.836;9.174;2022-10-16T08:01:37;16.30;99.90
48744;DHT22;34538;48.836;9.174;2022-10-16T08:04:03;16.40;99.90
48744;DHT22;34538;48.836;9.174;2022-10-16T08:06:28;16.50;99.90
48744;DHT22;34538;48.836;9.174;2022-10-16T08:08:56;16.50;99.90
48744;DHT22;34538;48.836;9.174;2022-10-16T08:11:21;16.60;99.90
48744;DHT22;34538;48.836;9.174;2022-10-16T08:13:48;16.70;99.90
48744;DHT22;34538;48.836;9.174;2022-10-16T08:16:13;16.80;99.90
48744;DHT22;34538;48.836;9.174;2022-10-16T08:18:40;16.90;99.90
48744;DHT22;34538;48.836;9.174;2022-10-16T08:21:07;17.00;99.90
48744;DHT22;34538;48.836;9.174;2022-10-16T08:23:33;17.00;99.90
48744;DHT22;34538;48.836;9.174;2022-10-16T08:26:05;17.10;99.90
48744;DHT22;34538;48.836;9.174;2022-10-16T08:28:35;17.20;99.90
48744;DHT22;34538;48.836;9.174;2022-10-16T08:31:15;17.30;99.90
48744;DHT22;34538;48.836;9.174;2022-10-16T08:33:43;17.40;99.90
48744;DHT22;34538;48.836;9.174;2022-10-16T08:36:10;17.50;99.90
48744;DHT22;34538;48.836;9.174;2022-10-16T08:38:37;17.60;99.90
48744;DHT22;34538;48.836;9.174;2022-10-16T08:41:17;17.70;99.90
48744;DHT22;34538;48.836;9.174;2022-10-16T08:49:33;17.90;99.90
48744;DHT22;34538;48.836;9.174;2022-10-16T08:51:59;18.00;99.90
48744;DHT22;34538;48.836;9.174;2022-10-16T08:54:32;18.10;99.90
48744;DHT22;34538;48.836;9.174;2022-10-16T08:57:16;18.20;99.90
48744;DHT22;34538;48.836;9.174;2022-10-16T08:59:42;18.30;99.90
48744;DHT22;34538;48.836;9.174;2022-10-16T09:02:31;18.40;99.90
48744;DHT22;34538;48.836;9.174;2022-10-16T09:05:23;18.40;99.90
48744;DHT22;34538;48.836;9.174;2022-10-16T09:08:23;18.50;99.90
48744;DHT22;34538;48.836;9.174;2022-10-16T09:11:07;18.60;99.90
48744;DHT22;34538;48.836;9.174;2022-10-16T09:13:48;18.60;99.90
48744;DHT22;34538;48.836;9.174;2022-10-16T09:16:27;18.70;99.90
48744;DHT22;34538;48.836;9.174;2022-10-16T09:21:46;18.70;99.90
48744;DHT22;34538;48.836;9.174;2022-10-16T09:24:23;18.70;99.90
48744;DHT22;34538;48.836;9.174;2022-10-16T09:26:54;18.70;99.90
48744;DHT22;34538;48.836;9.174;2022-10-16T09:29:21;18.60;99.90
48744;DHT22;34538;48.836;9.174;2022-10-16T09:31:48;18.60;99.90
48744;DHT22;34538;48.836;9.174;2022-10-16T09:34:35;18.60;99.90
48744;DHT22;34538;48.836;9.174;2022-10-16T09:37:10;18.60;99.90
48744;DHT22;34538;48.836;9.174;2022-10-16T09:39:47;18.60;99.90
48744;DHT22;34538;48.836;9.174;2022-10-16T09:42:27;18.60;99.90
48744;DHT22;34538;48.836;9.174;2022-10-16T09:44:53;18.60;99.90
48744;DHT22;34538;48.836;9.174;2022-10-16T09:47:30;18.70;99.90
48744;DHT22;34538;48.836;9.174;2022-10-16T09:50:02;18.60;99.90
48744;DHT22;34538;48.836;9.174;2022-10-16T09:52:31;18.70;99.90
48744;DHT22;34538;48.836;9.174;2022-10-16T09:55:09;18.70;99.90
48744;DHT22;34538;48.836;9.174;2022-10-16T09:57:51;18.70;99.90
48744;DHT22;34538;48.836;9.174;2022-10-16T10:00:17;18.70;99.90
48744;DHT22;34538;48.836;9.174;2022-10-16T10:02:44;18.80;99.90
48744;DHT22;34538;48.836;9.174;2022-10-16T10:05:27;18.80;99.90
48744;DHT22;34538;48.836;9.174;2022-10-16T10:07:59;18.90;99.90
48744;DHT22;34538;48.836;9.174;2022-10-16T10:10:28;19.00;99.90
48744;DHT22;34538;48.836;9.174;2022-10-16T10:12:55;19.10;99.90
48744;DHT22;34538;48.836;9.174;2022-10-16T10:15:22;19.10;99.90
48744;DHT22;34538;48.836;9.174;2022-10-16T10:17:54;19.30;99.90
48744;DHT22;34538;48.836;9.174;2022-10-16T10:20:27;19.30;99.90
48744;DHT22;34538;48.836;9.174;2022-10-16T10:22:54;19.30;99.90
48744;DHT22;34538;48.836;9.174;2022-10-16T10:33:48;19.80;99.90
48744;DHT22;34538;48.836;9.174;2022-10-16T10:38:56;20.20;99.90
48744;DHT22;34538;48.836;9.174;2022-10-16T10:46:41;20.50;99.90
48744;DHT22;34538;48.836;9.174;2022-10-16T10:54:26;20.90;99.90
48744;DHT22;34538;48.836;9.174;2022-10-16T10:57:53;20.90;99.90
48744;DHT22;34538;48.836;9.174;2022-10-16T11:00:18;20.90;99.90
48744;DHT22;34538;48.836;9.174;2022-10-16T11:05:44;21.10;99.90
48744;DHT22;34538;48.836;9.174;2022-10-16T11:08:19;21.20;99.90
48744;DHT22;34538;48.836;9.174;2022-10-16T11:10:58;21.30;99.90
48744;DHT22;34538;48.836;9.174;2022-10-16T11:13:44;21.30;99.90
48744;DHT22;34538;48.836;9.174;2022-10-16T11:16:37;21.30;99.90
48744;DHT22;34538;48.836;9.174;2022-10-16T11:22:01;21.30;99.90
48744;DHT22;34538;48.836;9.174;2022-10-16T11:24:54;21.30;99.90
48744;DHT22;34538;48.836;9.174;2022-10-16T11:30:25;21.40;99.90
48744;DHT22;34538;48.836;9.174;2022-10-16T11:35:48;21.40;99.90
48744;DHT22;34538;48.836;9.174;2022-10-16T11:41:29;21.50;99.90
48744;DHT22;34538;48.836;9.174;2022-10-16T11:46:34;21.60;99.90
48744;DHT22;34538;48.836;9.174;2022-10-16T11:49:21;21.60;99.90
48744;DHT22;34538;48.836;9.174;2022-10-16T11:52:02;21.70;99.90
48744;DHT22;34538;48.836;9.174;2022-10-16T11:57:34;21.80;99.90
48744;DHT22;34538;48.836;9.174;2022-10-16T12:08:25;22.00;99.90
48744;DHT22;34538;48.836;9.174;2022-10-16T12:10:51;22.10;99.90
48744;DHT22;34538;48.836;9.174;2022-10-16T12:13:50;22.10;99.90
48744;DHT22;34538;48.836;9.174;2022-10-16T12:18:45;22.30;99.90
48744;DHT22;34538;48.836;9.174;2022-10-16T12:21:13;22.30;99.90
48744;DHT22;34538;48.836;9.174;2022-10-16T12:23:53;22.40;99.90
48744;DHT22;34538;48.836;9.174;2022-10-16T12:26:25;22.40;99.90
48744;DHT22;34538;48.836;9.174;2022-10-16T12:28:51;22.40;99.90
48744;DHT22;34538;48.836;9.174;2022-10-16T12:31:17;22.40;99.90
48744;DHT22;34538;48.836;9.174;2022-10-16T12:33:57;22.40;99.90
48744;DHT22;34538;48.836;9.174;2022-10-16T12:36:34;22.40;99.90
48744;DHT22;34538;48.836;9.174;2022-10-16T12:39:01;22.40;99.90
48744;DHT22;34538;48.836;9.174;2022-10-16T12:41:31;22.40;99.90
48744;DHT22;34538;48.836;9.174;2022-10-16T12:43:58;22.40;99.90
48744;DHT22;34538;48.836;9.174;2022-10-16T12:51:38;22.40;99.90
48744;DHT22;34538;48.836;9.174;2022-10-16T12:56:51;22.50;99.90
48744;DHT22;34538;48.836;9.174;2022-10-16T13:07:59;22.50;99.90
48744;DHT22;34538;48.836;9.174;2022-10-16T13:10:47;22.60;99.90
48744;DHT22;34538;48.836;9.174;2022-10-16T13:13:51;22.60;99.90
48744;DHT22;34538;48.836;9.174;2022-10-16T13:29:18;22.80;99.90
48744;DHT22;34538;48.836;9.174;2022-10-16T13:31:45;22.90;99.90
48744;DHT22;34538;48.836;9.174;2022-10-16T13:34:21;22.90;99.90
48744;DHT22;34538;48.836;9.174;2022-10-16T13:36:52;22.90;99.90
48744;DHT22;34538;48.836;9.174;2022-10-16T13:39:29;22.90;99.90
48744;DHT22;34538;48.836;9.174;2022-10-16T13:42:12;22.90;99.90
48744;DHT22;34538;48.836;9.174;2022-10-16T13:44:44;22.80;99.90
48744;DHT22;34538;48.836;9.174;2022-10-16T13:49:45;22.80;99.90
48744;DHT22;34538;48.836;9.174;2022-10-16T13:52:19;22.80;99.90
48744;DHT22;34538;48.836;9.174;2022-10-16T13:54:45;22.80;99.90
48744;DHT22;34538;48.836;9.174;2022-10-16T13:57:15;22.80;99.90
48744;DHT22;34538;48.836;9.174;2022-10-16T13:59:41;22.80;99.90
48744;DHT22;34538;48.836;9.174;2022-10-16T14:02:22;22.80;99.90
48744;DHT22;34538;48.836;9.174;2022-10-16T14:04:50;22.80;99.90
48744;DHT22;34538;48.836;9.174;2022-10-16T14:07:24;22.80;99.90
48744;DHT22;34538;48.836;9.174;2022-10-16T14:09:52;22.70;99.90
48744;DHT22;34538;48.836;9.174;2022-10-16T14:12:19;22.70;99.90
48744;DHT22;34538;48.836;9.174;2022-10-16T14:14:47;22.60;99.90
48744;DHT22;34538;48.836;9.174;2022-10-16T14:17:15;22.50;99.90
48744;DHT22;34538;48.836;9.174;2022-10-16T14:19:46;22.50;99.90
48744;DHT22;34538;48.836;9.174;2022-10-16T14:22:35;22.40;99.90
48744;DHT22;34538;48.836;9.174;2022-10-16T14:25:47;22.30;99.90
48744;DHT22;34538;48.836;9.174;2022-10-16T14:30:28;22.20;99.90
48744;DHT22;34538;48.836;9.174;2022-10-16T14:32:59;22.20;99.90
48744;DHT22;34538;48.836;9.174;2022-10-16T14:37:54;22.20;99.90
48744;DHT22;34538;48.836;9.174;2022-10-16T14:40:23;22.20;99.90
48744;DHT22;34538;48.836;9.174;2022-10-16T14:42:49;22.20;99.90
48744;DHT22;34538;48.836;9.174;2022-10-16T14:45:20;22.20;99.90
48744;DHT22;34538;48.836;9.174;2022-10-16T14:48:12;22.20;99.90
48744;DHT22;34538;48.836;9.174;2022-10-16T14:50:41;22.20;99.90
48744;DHT22;34538;48.836;9.174;2022-10-16T14:53:11;22.10;99.90
48744;DHT22;34538;48.836;9.174;2022-10-16T14:55:38;22.20;99.90
48744;DHT22;34538;48.836;9.174;2022-10-16T14:58:04;22.10;99.90
48744;DHT22;34538;48.836;9.174;2022-10-16T15:00:29;22.10;99.90
48744;DHT22;34538;48.836;9.174;2022-10-16T15:02:55;22.20;99.90
48744;DHT22;34538;48.836;9.174;2022-10-16T15:05:25;22.10;99.90
48744;DHT22;34538;48.836;9.174;2022-10-16T15:07:55;22.10;99.90
48744;DHT22;34538;48.836;9.174;2022-10-16T15:10:23;22.00;99.90
48744;DHT22;34538;48.836;9.174;2022-10-16T15:12:49;22.00;99.90
48744;DHT22;34538;48.836;9.174;2022-10-16T15:15:35;22.00;99.90
48744;DHT22;34538;48.836;9.174;2022-10-16T15:18:02;22.00;99.90
48744;DHT22;34538;48.836;9.174;2022-10-16T15:20:31;22.00;99.90
48744;DHT22;34538;48.836;9.174;2022-10-16T15:23:21;22.00;99.90
48744;DHT22;34538;48.836;9.174;2022-10-16T15:25:55;22.00;99.90
48744;DHT22;34538;48.836;9.174;2022-10-16T15:28:22;22.00;99.90
48744;DHT22;34538;48.836;9.174;2022-10-16T15:30:54;21.90;99.90
48744;DHT22;34538;48.836;9.174;2022-10-16T15:33:22;21.90;99.90
48744;DHT22;34538;48.836;9.174;2022-10-16T15:35:50;21.80;99.90
48744;DHT22;34538;48.836;9.174;2022-10-16T15:38:17;21.80;99.90
48744;DHT22;34538;48.836;9.174;2022-10-16T15:40:43;21.80;99.90
48744;DHT22;34538;48.836;9.174;2022-10-16T15:43:09;21.70;99.90
48744;DHT22;34538;48.836;9.174;2022-10-16T15:45:36;21.70;99.90
48744;DHT22;34538;48.836;9.174;2022-10-16T15:48:01;21.70;99.90
48744;DHT22;34538;48.836;9.174;2022-10-16T15:50:27;21.60;99.90
48744;DHT22;34538;48.836;9.174;2022-10-16T15:52:53;21.60;99.90
48744;DHT22;34538;48.836;9.174;2022-10-16T15:55:18;21.60;99.90
48744;DHT22;34538;48.836;9.174;2022-10-16T15:57:45;21.60;99.90
48744;DHT22;34538;48.836;9.174;2022-10-16T16:00:15;21.50;99.90
48744;DHT22;34538;48.836;9.174;2022-10-16T16:02:42;21.50;99.90
48744;DHT22;34538;48.836;9.174;2022-10-16T16:05:08;21.50;99.90
48744;DHT22;34538;48.836;9.174;2022-10-16T16:07:36;21.40;99.90
48744;DHT22;34538;48.836;9.174;2022-10-16T16:10:04;21.40;99.90
48744;DHT22;34538;48.836;9.174;2022-10-16T16:12:29;21.30;99.90
48744;DHT22;34538;48.836;9.174;2022-10-16T16:14:55;21.30;99.90
48744;DHT22;34538;48.836;9.174;2022-10-16T16:17:21;21.20;99.90
48744;DHT22;34538;48.836;9.174;2022-10-16T16:19:46;21.10;99.90
48744;DHT22;34538;48.836;9.174;2022-10-16T16:22:12;21.00;99.90
48744;DHT22;34538;48.836;9.174;2022-10-16T16:24:38;20.90;99.90
48744;DHT22;34538;48.836;9.174;2022-10-16T16:27:03;20.70;99.90
48744;DHT22;34538;48.836;9.174;2022-10-16T16:29:29;20.60;99.90
48744;DHT22;34538;48.836;9.174;2022-10-16T16:31:55;20.50;99.90
48744;DHT22;34538;48.836;9.174;2022-10-16T16:34:26;20.30;99.90
48744;DHT22;34538;48.836;9.174;2022-10-16T16:36:53;20.20;99.90
48744;DHT22;34538;48.836;9.174;2022-10-16T16:39:19;20.10;99.90
48744;DHT22;34538;48.836;9.174;2022-10-16T16:41:44;20.00;99.90
48744;DHT22;34538;48.836;9.174;2022-10-16T16:44:14;19.80;99.90
48744;DHT22;34538;48.836;9.174;2022-10-16T16:46:40;19.70;99.90
48744;DHT22;34538;48.836;9.174;2022-10-16T16:49:09;19.60;99.90
48744;DHT22;34538;48.836;9.174;2022-10-16T16:51:36;19.50;99.90
48744;DHT22;34538;48.836;9.174;2022-10-16T16:54:01;19.30;99.90
48744;DHT22;34538;48.836;9.174;2022-10-16T16:56:27;19.20;99.90
48744;DHT22;34538;48.836;9.174;2022-10-16T16:58:55;19.10;99.90
48744;DHT22;34538;48.836;9.174;2022-10-16T17:01:24;19.00;99.90
48744;DHT22;34538;48.836;9.174;2022-10-16T17:03:51;19.00;99.90
48744;DHT22;34538;48.836;9.174;2022-10-16T17:06:19;18.90;99.90
48744;DHT22;34538;48.836;9.174;2022-10-16T17:08:45;18.90;99.90
48744;DHT22;34538;48.836;9.174;2022-10-16T17:11:13;18.80;99.90
48744;DHT22;34538;48.836;9.174;2022-10-16T17:13:39;18.80;99.90
48744;DHT22;34538;48.836;9.174;2022-10-16T17:16:06;18.70;99.90
48744;DHT22;34538;48.836;9.174;2022-10-16T17:18:33;18.70;99.90
48744;DHT22;34538;48.836;9.174;2022-10-16T17:21:00;18.60;99.90
48744;DHT22;34538;48.836;9.174;2022-10-16T17:23:26;18.50;99.90
48744;DHT22;34538;48.836;9.174;2022-10-16T17:25:52;18.40;99.90
48744;DHT22;34538;48.836;9.174;2022-10-16T17:28:18;18.40;99.90
48744;DHT22;34538;48.836;9.174;2022-10-16T17:30:44;18.30;99.90
48744;DHT22;34538;48.836;9.174;2022-10-16T17:33:11;18.20;99.90
48744;DHT22;34538;48.836;9.174;2022-10-16T17:35:42;18.10;99.90
48744;DHT22;34538;48.836;9.174;2022-10-16T17:38:08;18.00;99.90
48744;DHT22;34538;48.836;9.174;2022-10-16T17:40:34;17.90;99.90